createdAt,value
2018-07-25T00:00:49.720Z,981.754
2018-07-25T00:02:49.983Z,981.754
2018-07-25T00:04:49.595Z,981.716
2018-07-25T00:06:50.014Z,981.699
2018-07-25T00:08:50.355Z,981.684
2018-07-25T00:10:49.628Z,981.683
2018-07-25T00:12:50.131Z,981.690
2018-07-25T00:14:50.376Z,981.688
2018-07-25T00:16:49.782Z,981.692
2018-07-25T00:18:49.924Z,981.666
2018-07-25T00:20:50.198Z,981.661
2018-07-25T00:22:50.355Z,981.659
2018-07-25T00:24:50.600Z,981.643
2018-07-25T00:26:50.206Z,981.616
2018-07-25T00:28:50.427Z,981.605
2018-07-25T00:30:49.611Z,981.605
2018-07-25T00:32:49.914Z,981.619
2018-07-25T00:34:50.581Z,981.617
2018-07-25T00:36:49.871Z,981.611
2018-07-25T00:38:50.080Z,981.601
2018-07-25T00:40:50.373Z,981.598
2018-07-25T00:42:50.566Z,981.603
2018-07-25T00:44:49.780Z,981.600
2018-07-25T00:46:50.316Z,981.589
2018-07-25T00:48:50.505Z,981.584
2018-07-25T00:50:49.672Z,981.587
2018-07-25T00:52:49.989Z,981.599
2018-07-25T00:54:50.155Z,981.611
2018-07-25T00:56:49.766Z,981.607
2018-07-25T00:58:50.106Z,981.618
2018-07-25T01:00:50.349Z,981.612
2018-07-25T01:02:50.519Z,981.600
2018-07-25T01:04:50.366Z,981.588
2018-07-25T01:06:49.848Z,981.602
2018-07-25T01:08:50.180Z,981.620
2018-07-25T01:10:50.389Z,981.636
2018-07-25T01:12:49.714Z,981.635
2018-07-25T01:14:49.890Z,981.655
2018-07-25T01:16:50.338Z,981.673
2018-07-25T01:18:49.688Z,981.667
2018-07-25T01:20:49.811Z,981.660
2018-07-25T01:22:49.993Z,981.671
2018-07-25T01:24:50.206Z,981.678
2018-07-25T01:26:50.001Z,981.693
2018-07-25T01:28:50.371Z,981.684
2018-07-25T01:30:49.615Z,981.699
2018-07-25T01:32:49.853Z,981.702
2018-07-25T01:34:50.312Z,981.709
2018-07-25T01:36:49.891Z,981.726
2018-07-25T01:38:50.239Z,981.726
2018-07-25T01:40:50.509Z,981.725
2018-07-25T01:42:49.730Z,981.736
2018-07-25T01:44:49.979Z,981.742
2018-07-25T01:46:50.523Z,981.750
2018-07-25T01:48:49.702Z,981.753
2018-07-25T01:50:49.957Z,981.748
2018-07-25T01:52:50.183Z,981.744
2018-07-25T01:54:50.567Z,981.763
2018-07-25T01:56:50.147Z,981.780
2018-07-25T01:58:50.302Z,981.798
2018-07-25T02:00:50.480Z,981.849
2018-07-25T02:02:49.672Z,981.849
2018-07-25T02:04:50.153Z,981.866
2018-07-25T02:06:49.677Z,981.858
2018-07-25T02:08:49.935Z,981.855
2018-07-25T02:10:50.217Z,981.865
2018-07-25T02:12:50.441Z,981.887
2018-07-25T02:14:49.640Z,981.883
2018-07-25T02:16:50.282Z,981.883
2018-07-25T02:18:50.527Z,981.864
2018-07-25T02:20:49.731Z,981.875
2018-07-25T02:22:49.853Z,981.869
2018-07-25T02:24:50.076Z,981.855
2018-07-25T02:26:50.500Z,981.849
2018-07-25T02:28:49.945Z,981.856
2018-07-25T02:30:50.175Z,981.856
2018-07-25T02:32:50.425Z,981.903
2018-07-25T02:34:50.095Z,981.930
2018-07-25T02:36:49.621Z,981.958
2018-07-25T02:38:49.869Z,981.971
2018-07-25T02:40:50.028Z,981.983
2018-07-25T02:42:50.345Z,981.997
2018-07-25T02:44:49.739Z,982.002
2018-07-25T02:46:50.424Z,982.008
2018-07-25T02:48:49.606Z,982.004
2018-07-25T02:50:49.892Z,982.009
2018-07-25T02:52:50.150Z,982.036
2018-07-25T02:54:50.335Z,982.048
2018-07-25T02:56:50.079Z,982.058
2018-07-25T02:58:49.663Z,982.079
2018-07-25T03:00:49.846Z,982.104
2018-07-25T03:02:50.229Z,982.101
2018-07-25T03:04:49.939Z,982.110
2018-07-25T03:06:50.442Z,982.109
2018-07-25T03:08:50.790Z,982.148
2018-07-25T03:10:50.208Z,982.146
2018-07-25T03:12:50.474Z,982.158
2018-07-25T03:14:49.726Z,982.201
2018-07-25T03:16:50.632Z,982.197
2018-07-25T03:18:50.445Z,982.201
2018-07-25T03:20:49.681Z,982.212
2018-07-25T03:22:50.025Z,982.245
2018-07-25T03:24:50.266Z,982.245
2018-07-25T03:26:49.857Z,982.282
2018-07-25T03:28:50.202Z,982.312
2018-07-25T03:30:50.550Z,982.312
2018-07-25T03:32:49.635Z,982.352
2018-07-25T03:34:50.451Z,982.326
2018-07-25T03:36:49.934Z,982.331
2018-07-25T03:38:50.102Z,982.335
2018-07-25T03:40:50.273Z,982.336
2018-07-25T03:42:50.551Z,982.350
2018-07-25T03:44:49.732Z,982.377
2018-07-25T03:46:50.103Z,982.383
2018-07-25T03:48:50.444Z,982.375
2018-07-25T03:50:49.801Z,982.387
2018-07-25T03:52:50.052Z,982.400
2018-07-25T03:54:50.273Z,982.417
2018-07-25T03:56:49.887Z,982.466
2018-07-25T03:58:50.036Z,982.508
2018-07-25T04:00:50.205Z,982.538
2018-07-25T04:02:50.468Z,982.568
2018-07-25T04:04:50.025Z,982.570
2018-07-25T04:06:50.424Z,982.593
2018-07-25T04:08:49.739Z,982.612
2018-07-25T04:10:49.970Z,982.643
2018-07-25T04:12:50.282Z,982.665
2018-07-25T04:14:50.541Z,982.668
2018-07-25T04:16:50.037Z,982.680
2018-07-25T04:18:50.272Z,982.671
2018-07-25T04:20:49.627Z,982.670
2018-07-25T04:22:49.876Z,982.694
2018-07-25T04:24:50.492Z,982.698
2018-07-25T04:26:50.011Z,982.699
2018-07-25T04:28:50.264Z,982.700
2018-07-25T04:30:50.428Z,982.701
2018-07-25T04:32:49.604Z,982.701
2018-07-25T04:34:50.695Z,982.700
2018-07-25T04:36:49.658Z,982.721
2018-07-25T04:38:49.862Z,982.734
2018-07-25T04:40:50.039Z,982.740
2018-07-25T04:42:50.558Z,982.743
2018-07-25T04:44:49.761Z,982.753
2018-07-25T04:46:50.371Z,982.770
2018-07-25T04:48:50.590Z,982.789
2018-07-25T04:50:49.931Z,982.788
2018-07-25T04:52:50.188Z,982.787
2018-07-25T04:54:50.419Z,982.781
2018-07-25T04:56:49.925Z,982.784
2018-07-25T04:58:50.116Z,982.794
2018-07-25T05:00:50.518Z,982.822
2018-07-25T05:02:49.770Z,982.846
2018-07-25T05:04:50.419Z,982.847
2018-07-25T05:06:49.881Z,982.869
2018-07-25T05:08:50.140Z,982.828
2018-07-25T05:10:50.423Z,982.828
2018-07-25T05:12:49.700Z,982.798
2018-07-25T05:14:49.874Z,982.800
2018-07-25T05:16:50.384Z,982.778
2018-07-25T05:18:49.639Z,982.801
2018-07-25T05:20:49.811Z,982.805
2018-07-25T05:22:50.122Z,982.820
2018-07-25T05:24:50.337Z,982.831
2018-07-25T05:26:49.908Z,982.832
2018-07-25T05:28:50.170Z,982.825
2018-07-25T05:30:50.418Z,982.820
2018-07-25T05:32:50.591Z,982.832
2018-07-25T05:34:50.346Z,982.850
2018-07-25T05:36:50.501Z,982.849
2018-07-25T05:38:49.761Z,982.863
2018-07-25T05:40:49.979Z,982.855
2018-07-25T05:42:50.253Z,982.862
2018-07-25T05:44:50.499Z,982.866
2018-07-25T05:46:49.870Z,982.858
2018-07-25T05:48:50.225Z,982.856
2018-07-25T05:50:50.490Z,982.882
2018-07-25T05:52:50.569Z,982.862
2018-07-25T05:54:49.865Z,982.853
2018-07-25T05:56:50.725Z,982.845
2018-07-25T05:58:50.374Z,982.841
2018-07-25T06:00:49.958Z,982.826
2018-07-25T06:02:50.516Z,982.823
2018-07-25T06:04:50.616Z,982.829
2018-07-25T06:06:50.199Z,982.824
2018-07-25T06:08:50.455Z,982.856
2018-07-25T06:10:50.601Z,982.881
2018-07-25T06:12:50.097Z,982.884
2018-07-25T06:14:49.965Z,982.876
2018-07-25T06:16:50.456Z,982.889
2018-07-25T06:18:49.631Z,982.871
2018-07-25T06:20:50.050Z,982.840
2018-07-25T06:22:50.474Z,982.818
2018-07-25T06:24:50.632Z,982.825
2018-07-25T06:26:50.106Z,982.819
2018-07-25T06:28:50.384Z,982.820
2018-07-25T06:30:50.516Z,982.796
2018-07-25T06:32:49.663Z,982.787
2018-07-25T06:34:50.506Z,982.814
2018-07-25T06:36:50.479Z,982.831
2018-07-25T06:38:49.640Z,982.861
2018-07-25T06:40:49.894Z,982.860
2018-07-25T06:42:50.095Z,982.914
2018-07-25T06:44:50.452Z,982.913
2018-07-25T06:46:50.004Z,982.938
2018-07-25T06:48:50.112Z,982.940
2018-07-25T06:50:50.484Z,982.958
2018-07-25T06:52:50.226Z,982.972
2018-07-25T06:54:50.451Z,982.974
2018-07-25T06:56:49.808Z,982.982
2018-07-25T06:58:50.004Z,982.979
2018-07-25T07:00:50.232Z,982.961
2018-07-25T07:02:50.392Z,982.972
2018-07-25T07:04:50.091Z,983.003
2018-07-25T07:06:49.795Z,983.015
2018-07-25T07:08:50.154Z,983.054
2018-07-25T07:10:50.354Z,983.069
2018-07-25T07:12:49.665Z,983.083
2018-07-25T07:14:49.818Z,983.086
2018-07-25T07:16:50.284Z,983.078
2018-07-25T07:18:50.528Z,983.082
2018-07-25T07:20:49.630Z,983.094
2018-07-25T07:22:49.803Z,983.103
2018-07-25T07:24:50.202Z,983.087
2018-07-25T07:26:49.627Z,983.101
2018-07-25T07:28:49.774Z,983.104
2018-07-25T07:30:50.247Z,983.109
2018-07-25T07:32:50.394Z,983.109
2018-07-25T07:34:50.052Z,983.103
2018-07-25T07:36:50.507Z,983.121
2018-07-25T07:38:49.895Z,983.131
2018-07-25T07:40:50.087Z,983.138
2018-07-25T07:42:50.269Z,983.126
2018-07-25T07:44:50.506Z,983.123
2018-07-25T07:46:49.847Z,983.116
2018-07-25T07:48:49.994Z,983.128
2018-07-25T07:50:50.582Z,983.125
2018-07-25T07:52:49.885Z,983.129
2018-07-25T07:54:50.077Z,983.129
2018-07-25T07:56:50.492Z,983.135
2018-07-25T07:58:49.846Z,983.128
2018-07-25T08:00:49.981Z,983.101
2018-07-25T08:02:50.265Z,983.081
2018-07-25T08:04:49.940Z,983.081
2018-07-25T08:06:49.650Z,983.091
2018-07-25T08:08:49.965Z,983.091
2018-07-25T08:10:50.402Z,983.103
2018-07-25T08:12:50.054Z,983.103
2018-07-25T08:14:49.669Z,983.109
2018-07-25T08:16:50.531Z,983.126
2018-07-25T08:18:49.984Z,983.112
2018-07-25T08:20:50.319Z,983.121
2018-07-25T08:22:49.904Z,983.140
2018-07-25T08:24:50.108Z,983.131
2018-07-25T08:26:49.883Z,983.145
2018-07-25T08:28:50.071Z,983.126
2018-07-25T08:30:50.382Z,983.137
2018-07-25T08:32:49.627Z,983.141
2018-07-25T08:34:50.390Z,983.134
2018-07-25T08:36:50.115Z,983.130
2018-07-25T08:38:50.329Z,983.129
2018-07-25T08:40:50.509Z,983.140
2018-07-25T08:42:49.659Z,983.146
2018-07-25T08:44:49.975Z,983.151
2018-07-25T08:46:50.551Z,983.132
2018-07-25T08:48:50.060Z,983.136
2018-07-25T08:50:50.236Z,983.122
2018-07-25T08:52:50.697Z,983.129
2018-07-25T08:54:50.430Z,983.129
2018-07-25T08:56:49.937Z,983.124
2018-07-25T08:58:50.126Z,983.125
2018-07-25T09:00:50.283Z,983.115
2018-07-25T09:02:50.552Z,983.081
2018-07-25T09:04:50.232Z,983.085
2018-07-25T09:06:49.692Z,983.090
2018-07-25T09:08:49.849Z,983.079
2018-07-25T09:10:50.160Z,983.081
2018-07-25T09:12:50.848Z,983.079
2018-07-25T09:14:49.679Z,983.052
2018-07-25T09:16:50.367Z,983.033
2018-07-25T09:18:49.934Z,983.046
2018-07-25T09:20:50.088Z,983.032
2018-07-25T09:22:50.436Z,983.033
2018-07-25T09:24:49.640Z,982.989
2018-07-25T09:26:50.001Z,982.969
2018-07-25T09:28:50.435Z,982.971
2018-07-25T09:30:49.745Z,982.961
2018-07-25T09:32:51.105Z,982.965
2018-07-25T09:34:49.960Z,982.935
2018-07-25T09:36:50.528Z,982.926
2018-07-25T09:38:49.919Z,982.905
2018-07-25T09:40:50.420Z,982.905
2018-07-25T09:42:50.180Z,982.900
2018-07-25T09:44:50.617Z,982.907
2018-07-25T09:46:50.608Z,982.905
2018-07-25T09:48:50.592Z,982.877
2018-07-25T09:50:49.934Z,982.864
2018-07-25T09:52:50.487Z,982.864
2018-07-25T09:54:51.096Z,982.829
2018-07-25T09:56:50.432Z,982.827
2018-07-25T09:58:50.889Z,982.793
2018-07-25T10:00:49.799Z,982.780
2018-07-25T10:02:49.953Z,982.770
2018-07-25T10:04:49.855Z,982.742
2018-07-25T10:06:50.349Z,982.753
2018-07-25T10:08:49.697Z,982.753
2018-07-25T10:10:50.099Z,982.758
2018-07-25T10:12:50.395Z,982.723
2018-07-25T10:14:49.776Z,982.669
2018-07-25T10:16:51.127Z,982.657
2018-07-25T10:18:50.260Z,982.598
2018-07-25T10:20:51.115Z,982.586
2018-07-25T10:22:50.306Z,982.567
2018-07-25T10:24:50.804Z,982.569
2018-07-25T10:26:49.990Z,982.556
2018-07-25T10:28:50.497Z,982.559
2018-07-25T10:30:49.972Z,982.522
2018-07-25T10:32:50.481Z,982.518
2018-07-25T10:34:50.687Z,982.518
2018-07-25T10:36:50.174Z,982.505
2018-07-25T10:38:50.595Z,982.509
2018-07-25T10:40:50.121Z,982.518
2018-07-25T10:42:50.459Z,982.511
2018-07-25T10:44:49.806Z,982.498
2018-07-25T10:46:51.242Z,982.504
2018-07-25T10:48:50.643Z,982.497
2018-07-25T10:50:50.418Z,982.474
2018-07-25T10:52:50.589Z,982.486
2018-07-25T10:54:50.976Z,982.478
2018-07-25T10:56:50.355Z,982.449
2018-07-25T10:58:49.656Z,982.407
2018-07-25T11:00:49.891Z,982.383
2018-07-25T11:02:50.330Z,982.411
2018-07-25T11:04:50.243Z,982.419
2018-07-25T11:06:49.774Z,982.419
2018-07-25T11:08:50.132Z,982.408
2018-07-25T11:10:50.412Z,982.381
2018-07-25T11:12:49.942Z,982.352
2018-07-25T11:14:50.166Z,982.313
2018-07-25T11:16:49.622Z,982.264
2018-07-25T11:18:49.942Z,982.256
2018-07-25T11:20:50.229Z,982.246
2018-07-25T11:22:50.101Z,982.238
2018-07-25T11:24:49.743Z,982.208
2018-07-25T11:26:50.334Z,982.227
2018-07-25T11:28:49.649Z,982.218
2018-07-25T11:30:49.801Z,982.212
2018-07-25T11:32:50.357Z,982.180
2018-07-25T11:34:50.445Z,982.185
2018-07-25T11:36:50.029Z,982.180
2018-07-25T11:38:50.269Z,982.161
2018-07-25T11:40:50.461Z,982.153
2018-07-25T11:42:49.664Z,982.145
2018-07-25T11:44:49.915Z,982.107
2018-07-25T11:46:49.695Z,982.086
2018-07-25T11:48:49.915Z,982.066
2018-07-25T11:50:50.110Z,982.028
2018-07-25T11:52:50.384Z,982.062
2018-07-25T11:54:49.634Z,982.072
2018-07-25T11:56:50.083Z,982.075
2018-07-25T11:58:50.382Z,982.047
2018-07-25T12:00:49.894Z,982.023
2018-07-25T12:02:50.079Z,981.994
2018-07-25T12:04:49.663Z,981.991
2018-07-25T12:06:50.235Z,981.996
2018-07-25T12:08:49.819Z,981.996
2018-07-25T12:10:50.260Z,981.960
2018-07-25T12:12:49.769Z,981.966
2018-07-25T12:14:49.938Z,981.976
2018-07-25T12:16:50.400Z,981.925
2018-07-25T12:18:49.791Z,981.895
2018-07-25T12:20:50.194Z,981.876
2018-07-25T12:22:49.758Z,981.864
2018-07-25T12:24:50.261Z,981.864
2018-07-25T12:26:50.854Z,981.864
2018-07-25T12:28:49.885Z,981.845
2018-07-25T12:30:50.203Z,981.808
2018-07-25T12:32:49.758Z,981.785
2018-07-25T12:34:50.454Z,981.765
2018-07-25T12:36:50.784Z,981.766
2018-07-25T12:38:49.770Z,981.709
2018-07-25T12:40:50.185Z,981.684
2018-07-25T12:42:49.846Z,981.666
2018-07-25T12:44:50.561Z,981.633
2018-07-25T12:46:50.269Z,981.627
2018-07-25T12:48:50.957Z,981.585
2018-07-25T12:50:49.942Z,981.594
2018-07-25T12:52:50.189Z,981.532
2018-07-25T12:54:49.780Z,981.501
2018-07-25T12:56:50.408Z,981.480
2018-07-25T12:58:49.982Z,981.469
2018-07-25T13:00:50.542Z,981.473
2018-07-25T13:02:50.412Z,981.482
2018-07-25T13:04:49.741Z,981.447
2018-07-25T13:06:50.386Z,981.402
2018-07-25T13:08:49.870Z,981.381
2018-07-25T13:10:51.071Z,981.382
2018-07-25T13:12:50.022Z,981.378
2018-07-25T13:14:50.578Z,981.340
2018-07-25T13:16:50.195Z,981.343
2018-07-25T13:18:51.620Z,981.343
2018-07-25T13:20:50.613Z,981.283
2018-07-25T13:22:50.502Z,981.283
2018-07-25T13:24:50.250Z,981.289
2018-07-25T13:26:49.878Z,981.289
2018-07-25T13:28:50.612Z,981.250
2018-07-25T13:30:50.424Z,981.220
2018-07-25T13:32:49.799Z,981.203
2018-07-25T13:34:50.481Z,981.179
2018-07-25T13:36:50.061Z,981.148
2018-07-25T13:38:49.649Z,981.143
2018-07-25T13:40:51.001Z,981.132
2018-07-25T13:42:50.396Z,981.098
2018-07-25T13:44:50.278Z,981.089
2018-07-25T13:46:49.960Z,981.113
2018-07-25T13:48:51.368Z,981.114
2018-07-25T13:50:50.023Z,981.095
2018-07-25T13:52:50.327Z,981.093
2018-07-25T13:54:50.591Z,981.089
2018-07-25T13:56:50.201Z,981.038
2018-07-25T13:58:50.485Z,981.017
2018-07-25T14:00:49.837Z,980.987
2018-07-25T14:02:50.934Z,980.983
2018-07-25T14:04:50.150Z,980.991
2018-07-25T14:06:49.651Z,980.961
2018-07-25T14:08:50.080Z,980.944
2018-07-25T14:10:51.473Z,980.930
2018-07-25T14:12:50.369Z,980.937
2018-07-25T14:14:49.957Z,980.899
2018-07-25T14:16:50.485Z,980.864
2018-07-25T14:18:49.767Z,980.864
2018-07-25T14:20:50.299Z,980.870
2018-07-25T14:22:49.790Z,980.864
2018-07-25T14:24:50.119Z,980.845
2018-07-25T14:26:50.066Z,980.801
2018-07-25T14:28:50.640Z,980.799
2018-07-25T14:30:50.466Z,980.792
2018-07-25T14:32:50.893Z,980.775
2018-07-25T14:34:50.734Z,980.768
2018-07-25T14:36:50.088Z,980.764
2018-07-25T14:38:50.514Z,980.765
2018-07-25T14:40:49.828Z,980.730
2018-07-25T14:42:50.192Z,980.705
2018-07-25T14:44:50.661Z,980.699
2018-07-25T14:46:50.727Z,980.663
2018-07-25T14:48:49.682Z,980.648
2018-07-25T14:50:50.174Z,980.643
2018-07-25T14:52:50.587Z,980.697
2018-07-25T14:54:51.121Z,980.670
2018-07-25T14:56:50.359Z,980.672
2018-07-25T14:58:50.139Z,980.701
2018-07-25T15:00:50.388Z,980.693
2018-07-25T15:02:50.139Z,980.693
2018-07-25T15:04:49.660Z,980.640
2018-07-25T15:06:50.203Z,980.640
2018-07-25T15:08:50.319Z,980.647
2018-07-25T15:10:50.657Z,980.667
2018-07-25T15:12:50.060Z,980.676
2018-07-25T15:14:49.925Z,980.702
2018-07-25T15:16:51.600Z,980.719
2018-07-25T15:18:49.919Z,980.718
2018-07-25T15:20:50.258Z,980.707
2018-07-25T15:22:50.911Z,980.701
2018-07-25T15:24:49.781Z,980.710
2018-07-25T15:26:50.381Z,980.723
2018-07-25T15:28:49.666Z,980.731
2018-07-25T15:30:50.718Z,980.735
2018-07-25T15:32:49.784Z,980.660
2018-07-25T15:34:50.579Z,980.618
2018-07-25T15:36:50.324Z,980.646
2018-07-25T15:38:50.710Z,980.661
2018-07-25T15:40:50.386Z,980.623
2018-07-25T15:42:49.832Z,980.608
2018-07-25T15:44:51.457Z,980.582
2018-07-25T15:46:50.403Z,980.566
2018-07-25T15:48:50.239Z,980.555
2018-07-25T15:50:50.586Z,980.545
2018-07-25T15:52:50.377Z,980.553
2018-07-25T15:54:50.282Z,980.551
2018-07-25T15:56:49.818Z,980.572
2018-07-25T15:58:50.457Z,980.583
2018-07-25T16:00:49.780Z,980.568
2018-07-25T16:02:50.212Z,980.525
2018-07-25T16:04:49.965Z,980.490
2018-07-25T16:06:51.378Z,980.483
2018-07-25T16:08:50.047Z,980.482
2018-07-25T16:10:50.510Z,980.489
2018-07-25T16:12:50.299Z,980.470
2018-07-25T16:14:50.902Z,980.469
2018-07-25T16:16:50.072Z,980.428
2018-07-25T16:18:50.462Z,980.430
2018-07-25T16:20:49.968Z,980.417
2018-07-25T16:22:50.400Z,980.406
2018-07-25T16:24:49.708Z,980.375
2018-07-25T16:26:50.438Z,980.375
2018-07-25T16:28:49.854Z,980.334
2018-07-25T16:30:50.286Z,980.332
2018-07-25T16:32:49.845Z,980.336
2018-07-25T16:34:50.570Z,980.336
2018-07-25T16:36:50.899Z,980.340
2018-07-25T16:38:50.059Z,980.279
2018-07-25T16:40:50.420Z,980.287
2018-07-25T16:42:49.764Z,980.288
2018-07-25T16:44:50.130Z,980.304
2018-07-25T16:46:50.110Z,980.310
2018-07-25T16:48:50.529Z,980.287
2018-07-25T16:50:49.848Z,980.267
2018-07-25T16:52:50.295Z,980.279
2018-07-25T16:54:49.695Z,980.311
2018-07-25T16:56:50.598Z,980.311
2018-07-25T16:58:50.629Z,980.314
2018-07-25T17:00:50.180Z,980.320
2018-07-25T17:02:50.463Z,980.360
2018-07-25T17:04:50.318Z,980.376
2018-07-25T17:06:50.725Z,980.392
2018-07-25T17:08:50.588Z,980.382
2018-07-25T17:10:49.919Z,980.375
2018-07-25T17:12:50.251Z,980.381
2018-07-25T17:14:49.757Z,980.375
2018-07-25T17:16:50.290Z,980.384
2018-07-25T17:18:50.658Z,980.385
2018-07-25T17:20:50.191Z,980.402
2018-07-25T17:22:49.891Z,980.421
2018-07-25T17:24:50.208Z,980.441
2018-07-25T17:26:50.200Z,980.473
2018-07-25T17:28:50.815Z,980.479
2018-07-25T17:30:49.932Z,980.484
2018-07-25T17:32:50.379Z,980.493
2018-07-25T17:34:50.277Z,980.510
2018-07-25T17:36:50.026Z,980.510
2018-07-25T17:38:50.476Z,980.538
2018-07-25T17:40:50.027Z,980.551
2018-07-25T17:42:50.936Z,980.572
2018-07-25T17:44:50.043Z,980.593
2018-07-25T17:46:49.934Z,980.611
2018-07-25T17:48:49.941Z,980.631
2018-07-25T17:50:51.622Z,980.638
2018-07-25T17:52:50.659Z,980.638
2018-07-25T17:54:50.517Z,980.640
2018-07-25T17:56:50.355Z,980.655
2018-07-25T17:58:50.124Z,980.642
2018-07-25T18:00:50.595Z,980.645
2018-07-25T18:02:50.052Z,980.650
2018-07-25T18:04:50.819Z,980.657
2018-07-25T18:06:50.422Z,980.647
2018-07-25T18:08:49.741Z,980.644
2018-07-25T18:10:50.163Z,980.658
2018-07-25T18:12:51.745Z,980.679
2018-07-25T18:14:50.684Z,980.704
2018-07-25T18:16:50.249Z,980.719
2018-07-25T18:18:49.642Z,980.763
2018-07-25T18:20:50.088Z,980.818
2018-07-25T18:22:50.923Z,980.860
2018-07-25T18:24:49.798Z,980.896
2018-07-25T18:26:51.520Z,980.923
2018-07-25T18:28:50.574Z,980.931
2018-07-25T18:30:49.998Z,980.955
2018-07-25T18:32:50.631Z,980.980
2018-07-25T18:34:50.374Z,981.004
2018-07-25T18:36:50.195Z,981.038
2018-07-25T18:38:50.701Z,981.043
2018-07-25T18:40:51.545Z,981.054
2018-07-25T18:42:50.222Z,981.058
2018-07-25T18:44:49.753Z,981.064
2018-07-25T18:46:50.195Z,981.064
2018-07-25T18:48:49.777Z,981.075
2018-07-25T18:50:50.158Z,981.069
2018-07-25T18:52:50.499Z,981.057
2018-07-25T18:54:49.789Z,981.089
2018-07-25T18:56:50.268Z,981.107
2018-07-25T18:58:50.519Z,981.172
2018-07-25T19:00:49.742Z,981.212
2018-07-25T19:02:50.143Z,981.248
2018-07-25T19:04:49.743Z,981.265
2018-07-25T19:06:50.211Z,981.278
2018-07-25T19:08:50.586Z,981.281
2018-07-25T19:10:49.915Z,981.311
2018-07-25T19:12:50.086Z,981.341
2018-07-25T19:14:50.297Z,981.369
2018-07-25T19:16:50.322Z,981.413
2018-07-25T19:18:49.781Z,981.452
2018-07-25T19:20:49.974Z,981.484
2018-07-25T19:22:50.327Z,981.513
2018-07-25T19:24:50.565Z,981.528
2018-07-25T19:26:50.028Z,981.550
2018-07-25T19:28:50.313Z,981.565
2018-07-25T19:30:49.691Z,981.578
2018-07-25T19:32:49.961Z,981.602
2018-07-25T19:34:50.508Z,981.632
2018-07-25T19:36:50.143Z,981.656
2018-07-25T19:38:50.323Z,981.678
2018-07-25T19:40:50.408Z,981.694
2018-07-25T19:42:49.726Z,981.719
2018-07-25T19:44:49.991Z,981.743
2018-07-25T19:46:50.426Z,981.783
2018-07-25T19:48:49.692Z,981.807
2018-07-25T19:50:49.975Z,981.831
2018-07-25T19:52:50.233Z,981.825
2018-07-25T19:54:50.401Z,981.855
2018-07-25T19:56:49.890Z,981.874
2018-07-25T19:58:50.206Z,981.882
2018-07-25T20:00:50.582Z,981.877
2018-07-25T20:02:50.206Z,981.871
2018-07-25T20:04:50.024Z,981.883
2018-07-25T20:06:50.532Z,981.877
2018-07-25T20:08:49.959Z,981.888
2018-07-25T20:10:50.285Z,981.892
2018-07-25T20:12:50.554Z,981.910
2018-07-25T20:14:49.733Z,981.925
2018-07-25T20:16:50.752Z,981.915
2018-07-25T20:18:50.492Z,981.909
2018-07-25T20:20:49.673Z,981.916
2018-07-25T20:22:50.158Z,981.910
2018-07-25T20:24:50.440Z,981.920
2018-07-25T20:26:49.833Z,981.921
2018-07-25T20:28:50.040Z,981.933
2018-07-25T20:30:50.440Z,981.920
2018-07-25T20:32:49.808Z,981.948
2018-07-25T20:34:50.397Z,981.983
2018-07-25T20:36:49.840Z,981.989
2018-07-25T20:38:50.175Z,982.006
2018-07-25T20:40:50.396Z,982.031
2018-07-25T20:42:50.466Z,982.076
2018-07-25T20:44:49.840Z,982.116
2018-07-25T20:46:50.346Z,982.151
2018-07-25T20:48:49.636Z,982.151
2018-07-25T20:50:49.861Z,982.195
2018-07-25T20:52:50.176Z,982.191
2018-07-25T20:54:50.502Z,982.206
2018-07-25T20:56:49.839Z,982.219
2018-07-25T20:58:50.173Z,982.257
2018-07-25T21:00:50.633Z,982.263
2018-07-25T21:02:50.203Z,982.273
2018-07-25T21:04:49.926Z,982.311
2018-07-25T21:06:50.323Z,982.342
2018-07-25T21:08:50.521Z,982.342
2018-07-25T21:10:49.694Z,982.373
2018-07-25T21:12:50.159Z,982.389
2018-07-25T21:14:50.434Z,982.413
2018-07-25T21:16:49.764Z,982.430
2018-07-25T21:18:49.786Z,982.449
2018-07-25T21:20:50.076Z,982.449
2018-07-25T21:22:50.299Z,982.469
2018-07-25T21:24:49.637Z,982.504
2018-07-25T21:26:50.093Z,982.524
2018-07-25T21:28:50.252Z,982.534
2018-07-25T21:30:50.540Z,982.557
2018-07-25T21:32:49.992Z,982.613
2018-07-25T21:34:49.811Z,982.638
2018-07-25T21:36:50.113Z,982.647
2018-07-25T21:38:50.431Z,982.651
2018-07-25T21:40:49.655Z,982.650
2018-07-25T21:42:49.865Z,982.649
2018-07-25T21:44:50.192Z,982.648
2018-07-25T21:46:49.715Z,982.659
2018-07-25T21:48:49.886Z,982.659
2018-07-25T21:50:50.330Z,982.672
2018-07-25T21:52:49.911Z,982.677
2018-07-25T21:54:50.065Z,982.695
2018-07-25T21:56:50.521Z,982.720
2018-07-25T21:58:49.830Z,982.738
2018-07-25T22:00:50.356Z,982.735
2018-07-25T22:02:50.596Z,982.709
2018-07-25T22:04:50.340Z,982.689
2018-07-25T22:06:49.904Z,982.681
2018-07-25T22:08:50.262Z,982.675
2018-07-25T22:10:50.492Z,982.675
2018-07-25T22:12:49.788Z,982.684
2018-07-25T22:14:50.017Z,982.689
2018-07-25T22:16:50.389Z,982.695
2018-07-25T22:18:50.603Z,982.705
2018-07-25T22:20:50.008Z,982.710
2018-07-25T22:22:50.358Z,982.706
2018-07-25T22:24:50.519Z,982.703
2018-07-25T22:26:50.062Z,982.705
2018-07-25T22:28:50.290Z,982.701
2018-07-25T22:30:50.570Z,982.693
2018-07-25T22:32:49.801Z,982.697
2018-07-25T22:34:50.403Z,982.708
2018-07-25T22:36:49.757Z,982.719
2018-07-25T22:38:49.921Z,982.730
2018-07-25T22:40:50.257Z,982.726
2018-07-25T22:42:50.550Z,982.744
2018-07-25T22:44:49.768Z,982.743
2018-07-25T22:46:50.220Z,982.748
2018-07-25T22:48:50.503Z,982.768
2018-07-25T22:50:49.907Z,982.765
2018-07-25T22:52:50.129Z,982.805
2018-07-25T22:54:50.358Z,982.844
2018-07-25T22:56:49.904Z,982.875
2018-07-25T22:58:50.085Z,982.903
2018-07-25T23:00:50.399Z,982.903
2018-07-25T23:02:49.798Z,982.948
2018-07-25T23:04:50.354Z,982.960
2018-07-25T23:06:49.913Z,982.965
2018-07-25T23:08:50.071Z,982.967
2018-07-25T23:10:50.361Z,982.975
2018-07-25T23:12:49.677Z,982.984
2018-07-25T23:14:49.893Z,982.997
2018-07-25T23:16:50.356Z,982.998
2018-07-25T23:18:50.549Z,983.000
2018-07-25T23:20:49.727Z,982.996
2018-07-25T23:22:49.952Z,983.014
2018-07-25T23:24:50.209Z,983.038
2018-07-25T23:26:50.565Z,983.054
2018-07-25T23:28:49.831Z,983.068
2018-07-25T23:30:50.026Z,983.080
2018-07-25T23:32:50.231Z,983.079
2018-07-25T23:34:49.821Z,983.090
2018-07-25T23:36:50.277Z,983.085
2018-07-25T23:38:49.626Z,983.085
2018-07-25T23:40:49.855Z,983.086
2018-07-25T23:42:50.144Z,983.085
2018-07-25T23:44:50.314Z,983.090
2018-07-25T23:46:49.967Z,983.099
2018-07-25T23:48:50.292Z,983.115
2018-07-25T23:50:49.692Z,983.120
2018-07-25T23:52:49.832Z,983.126
2018-07-25T23:54:49.938Z,983.131
2018-07-25T23:56:50.419Z,983.096
2018-07-25T23:58:49.621Z,983.061
